Terminal Aerodrome Forecast
Issued by NWS

Home | Current Version | Previous Version | Text Only | Print | Product List | Glossary On
Versions: 1 2 3 4 5 6 7 8 9 10 11 12 13 14 15
000
FTUS46 KSGX 011725
TAFTRM
TAF
KTRM 011725Z 0118/0218 14007KT P6SM SCT250
     FM020200 33011KT P6SM FEW250
     FM021200 VRB05KT P6SM FEW250=

USA.gov is the U.S. government's official web portal to all federal, state and local government web resources and services.